ULLIULMM

Guest
Details From ULLI - Saint Petersburg Pulkovo
To ULMM - Murmansk
Flight Number -
Tags Generated
Created
Modified
Stats Distance 543 nm / 1,006 km
Max Altitude 0 ft / 0 m
Waypoints 3
Social Downloads 6
Likes 0
Share VATSIM

Download

Looking for another format? Having issues loading an existing format? Contact us
Advertisement - Login to hide

Notes

Generated

Route

ULLI ULMM ULMM

ID Type Via Altitude Latitude Longitude Leg Dist Tot Dist Heading (true) Name
O ULLI APT - 0 ft / 0 m 59.80973˚ 30.24537˚ - 0 nm - -
ULMM FIX - 0 ft / 0 m 68.78167˚ 32.74667˚ 542 nm 542 nm 6° / 8° -
O ULMM APT - 0 ft / 0 m 68.79098˚ 32.73363˚ 0 nm 543 nm 333° / 333° -

Altitude Profile

Advertisement - Login to hide

Weather


0- 5 10 15 20 25 30 35+ Temperature / ° C

Clouds and Precipitation
Forecast for 2018-05-25 12:00 UTC. Updated 31 minutes ago

Ground ~20,000 ft ~40,000 ft Winds

ULLI

Details ICAO ULLI (LED)
Name Saint Petersburg Pulkovo
Region Russia
Timezone Europe/Moscow (UTC+3.0)
Stats Elevation 78 ft / 24 m (AMSL)
Location 59.800292° 30.262504°
Runways 2
Magnetic Variation 10.762° E

METAR

ULLI 251130Z 18003MPS 110V270 CAVOK 20/01 Q1030 R88/090060 NOSIG

Decode

TAF

TAF ULLI 250800Z 2509/2609 24003MPS CAVOK TEMPO 2521/2606 21003MPS

Decode

Departure Runways

ID Width Length Bearing (true) Bearing (mag) Surface Threshold Offset Overrun Length
10L 197 ft / 60 m 11,115 ft / 3,388 m 106.38° 95.62° Concrete 0 ft / 0 m 235 ft / 72 m
10R 197 ft / 60 m 12,365 ft / 3,769 m 106.40° 95.64° Concrete 0 ft / 0 m 220 ft / 67 m
28L 197 ft / 60 m 12,365 ft / 3,769 m 286.46° 275.70° Concrete 0 ft / 0 m 260 ft / 79 m
28R 197 ft / 60 m 11,115 ft / 3,388 m 286.44° 275.68° Concrete 0 ft / 0 m 240 ft / 73 m

ULMM

Details ICAO ULMM (MMK)
Name Murmansk
Region Russia
Timezone Europe/Moscow (UTC+3.0)
Stats Elevation 266 ft / 81 m (AMSL)
Location 68.781671° 32.750821°
Runways 1
Magnetic Variation 16.037° E

METAR

ULMM 251130Z 27003MPS 230V300 9999 SCT033 15/01 Q1022 R31/090070 NOSIG RMK QFE759

Decode

TAF

TAF TAF ULMM 250755Z 2509/2609 26003G08MPS 9999 SCT013 TEMPO 2509/2518 31003G09MPS 3100 -SHRA BR BKN011CB TEMPO 2518/2602 21003G09MPS 3100 -SHRA BR BKN011CB BECMG 2602/2603 31003G09MPS TEMPO 2603/2609 28005G12MPS 3100 -SHRA BKN011CB

Decode

Destination Runways

ID Width Length Bearing (true) Bearing (mag) Surface Threshold Offset Overrun Length
14 148 ft / 45 m 8,172 ft / 2,491 m 146.23° 130.19° Concrete 0 ft / 0 m 160 ft / 49 m
32 148 ft / 45 m 8,172 ft / 2,491 m 326.26° 310.22° Concrete 0 ft / 0 m 160 ft / 49 m

Approach Navaids

Runway Type Ident Frequency Range Bearing (true) Bearing (mag) Slope Elevation
14 Localiser IPF 110.30 MHz 18 nm / 33 km 146.45° 130.42° - 276 ft / 84 m (AMSL)
14 Glidescope IPF 110.30 MHz 10 nm / 19 km 146.00° 129.96° 3.00° 266 ft / 81 m (AMSL)
32 Localiser IRD 108.50 MHz 18 nm / 33 km 326.45° 310.42° - 110 ft / 34 m (AMSL)
32 Glidescope IRD 108.50 MHz 10 nm / 19 km 326.00° 309.96° 3.00° 266 ft / 81 m (AMSL)

Popular Alternatives